FNCA

Cabinda Airport

Cabinda, Angola
METAR FNCA 230900Z 27007KT 9999 FEW016 29/24 Q1013
Observed Flight Rules
Oct-23 @ 09:00 UTC (an hour ago) Visual Flight Rules
Wind Visibility Clouds
270° at 7 knots 10,000+ meters
  • Few at 1,600' AGL
Temperatures Readings
Current 29°C / 84°F
Dewpoint 24°C / 75°F
Humidity 74%
Altimeter 29.91" Hg
Pressure 1013 hPa
Elevation 20
METAR FNCA 230900Z 27007KT 9999 FEW016 29/24 Q1013
Observed Flight Rules
Oct-23 @ 09:00 UTC
(an hour ago)
VFR
Wind Visibility
270° at 7 knots 10,000+ meters
Clouds
  • Few at 1,600' AGL
Temperature Dewpoint
29°C / 84°F 24°C / 75°F
Humidity Altimeter Pressure
74% 29.91" Hg 1013 hPa